Épinal-Mirecourt Airport

Airport
ICAO code: 
LFSG
IATA Code: 
EPL
Summary
ICAO Region: 
EUR
Territory: 
Location: 
, Lorraine
Serving: 
Epinal
Elevation: 
1084 ft
Coordinates: 
Aerial View: 
48° 19' 29.86" N, 6° 4' 11.939" E
Metar
Observation
LFSG 240700Z AUTO 00000KT 5000 BR NSC M02/M03 Q1030
Station
Epinal-Mirecourt
Date/Time
2022-01-24 07:00:00
Wind direction
Wind speed
00 kts
Lowest cloud amount
nil significant cloud
Temperature
-2°C
Dew point
-3°C
Humidity
92%
QNH
1030 hPa
Weather condition
n/a

Runways

Designator Length Width Surface Rops
9/27 2700 45 CON Yes/Yes
Airport map: 
Aerial View: 

SKYbrary Partners:

Safety knowledge contributed by: